createdAt,value
2017-01-03T00:00:41.327Z,974.81
2017-01-03T00:01:41.319Z,974.76
2017-01-03T00:02:41.315Z,974.8
2017-01-03T00:03:41.315Z,974.75
2017-01-03T00:04:41.311Z,974.73
2017-01-03T00:05:41.308Z,974.73
2017-01-03T00:06:41.300Z,974.73
2017-01-03T00:07:41.295Z,974.77
2017-01-03T00:08:41.292Z,974.75
2017-01-03T00:09:41.288Z,974.71
2017-01-03T00:10:41.284Z,974.69
2017-01-03T00:11:41.276Z,974.7
2017-01-03T00:12:41.292Z,974.7
2017-01-03T00:13:41.268Z,974.73
2017-01-03T00:14:41.268Z,974.74
2017-01-03T00:15:41.260Z,974.72
2017-01-03T00:16:41.252Z,974.72
2017-01-03T00:17:41.252Z,974.66
2017-01-03T00:18:41.248Z,974.66
2017-01-03T00:19:41.244Z,974.65
2017-01-03T00:20:41.240Z,974.62
2017-01-03T00:21:41.236Z,974.68
2017-01-03T00:22:41.229Z,974.7
2017-01-03T00:23:41.225Z,974.71
2017-01-03T00:24:41.225Z,974.73
2017-01-03T00:25:41.217Z,974.69
2017-01-03T00:26:41.209Z,974.66
2017-01-03T00:27:41.209Z,974.66
2017-01-03T00:28:41.205Z,974.64
2017-01-03T00:29:41.201Z,974.58
2017-01-03T00:30:41.197Z,974.61
2017-01-03T00:31:41.193Z,974.59
2017-01-03T00:32:41.185Z,974.59
2017-01-03T00:33:41.181Z,974.6
2017-01-03T00:34:41.178Z,974.58
2017-01-03T00:35:41.173Z,974.61
2017-01-03T00:36:41.169Z,974.62
2017-01-03T00:37:41.162Z,974.6
2017-01-03T00:38:41.161Z,974.6
2017-01-03T00:39:41.158Z,974.62
2017-01-03T00:40:41.150Z,974.64
2017-01-03T00:41:41.142Z,974.59
2017-01-03T00:42:41.142Z,974.63
2017-01-03T00:43:41.138Z,974.58
2017-01-03T00:44:41.134Z,974.63
2017-01-03T00:45:41.130Z,974.66
2017-01-03T00:46:41.122Z,974.65
2017-01-03T00:47:41.118Z,974.69
2017-01-03T00:48:41.118Z,974.7
2017-01-03T00:49:41.114Z,974.72
2017-01-03T00:50:41.106Z,974.72
2017-01-03T00:51:41.098Z,974.69
2017-01-03T00:52:41.096Z,974.69
2017-01-03T00:53:41.094Z,974.68
2017-01-03T00:54:41.091Z,974.71
2017-01-03T00:55:41.087Z,974.68
2017-01-03T00:56:41.079Z,974.74
2017-01-03T00:57:41.075Z,974.7
2017-01-03T00:58:41.074Z,974.72
2017-01-03T00:59:41.067Z,974.68
2017-01-03T01:00:41.059Z,974.69
2017-01-03T01:01:41.055Z,974.7
2017-01-03T01:02:41.055Z,974.73
2017-01-03T01:03:41.051Z,974.73
2017-01-03T01:04:41.048Z,974.75
2017-01-03T01:05:41.040Z,974.79
2017-01-03T01:06:41.039Z,974.77
2017-01-03T01:07:41.035Z,974.76
2017-01-03T01:08:41.031Z,974.79
2017-01-03T01:09:41.019Z,974.72
2017-01-03T01:10:41.016Z,974.79
2017-01-03T01:11:41.016Z,974.81
2017-01-03T01:12:41.012Z,974.83
2017-01-03T01:13:41.007Z,974.82
2017-01-03T01:14:41.000Z,974.81
2017-01-03T01:15:41.000Z,974.88
2017-01-03T01:16:40.996Z,974.91
2017-01-03T01:17:41.040Z,974.92
2017-01-03T01:18:40.980Z,974.95
2017-01-03T01:19:40.976Z,974.99
2017-01-03T01:20:40.976Z,975
2017-01-03T01:21:40.972Z,975.06
2017-01-03T01:22:40.967Z,975.05
2017-01-03T01:23:40.960Z,975.07
2017-01-03T01:24:40.956Z,975.01
2017-01-03T01:25:40.952Z,975.04
2017-01-03T01:26:40.948Z,975
2017-01-03T01:27:40.940Z,974.99
2017-01-03T01:28:40.937Z,975.01
2017-01-03T01:29:40.936Z,975.03
2017-01-03T01:30:40.932Z,975.05
2017-01-03T01:31:40.920Z,975.04
2017-01-03T01:32:40.920Z,975.03
2017-01-03T01:33:40.916Z,975.04
2017-01-03T01:34:40.912Z,975.07
2017-01-03T01:35:40.909Z,975.07
2017-01-03T01:36:40.900Z,975.11
2017-01-03T01:37:40.900Z,975.12
2017-01-03T01:38:40.896Z,975.1
2017-01-03T01:39:40.884Z,975.11
2017-01-03T01:40:40.884Z,975.15
2017-01-03T01:41:40.880Z,975.11
2017-01-03T01:42:40.875Z,975.1
2017-01-03T01:43:40.872Z,975.1
2017-01-03T01:44:40.864Z,975.14
2017-01-03T01:45:40.862Z,975.15
2017-01-03T01:46:40.860Z,975.17
2017-01-03T01:47:40.852Z,975.21
2017-01-03T01:48:40.844Z,975.21
2017-01-03T01:49:40.844Z,975.21
2017-01-03T01:50:40.840Z,975.19
2017-01-03T01:51:40.836Z,975.25
2017-01-03T01:52:40.828Z,975.26
2017-01-03T01:53:40.828Z,975.27
2017-01-03T01:54:40.820Z,975.29
2017-01-03T01:55:40.820Z,975.3
2017-01-03T01:56:40.808Z,975.29
2017-01-03T01:57:40.808Z,975.3
2017-01-03T01:58:40.803Z,975.32
2017-01-03T01:59:40.800Z,975.35
2017-01-03T02:00:40.796Z,975.32
2017-01-03T02:01:40.792Z,975.33
2017-01-03T02:02:40.788Z,975.34
2017-01-03T02:03:40.784Z,975.35
2017-01-03T02:04:40.776Z,975.37
2017-01-03T02:05:40.772Z,975.35
2017-01-03T02:06:40.768Z,975.37
2017-01-03T02:07:40.764Z,975.4
2017-01-03T02:08:40.761Z,975.36
2017-01-03T02:09:40.756Z,975.39
2017-01-03T02:10:40.749Z,975.33
2017-01-03T02:11:40.749Z,975.4
2017-01-03T02:12:40.741Z,975.38
2017-01-03T02:13:40.733Z,975.38
2017-01-03T02:14:40.733Z,975.37
2017-01-03T02:15:40.729Z,975.35
2017-01-03T02:16:40.725Z,975.38
2017-01-03T02:17:40.721Z,975.37
2017-01-03T02:18:40.715Z,975.36
2017-01-03T02:19:40.709Z,975.39
2017-01-03T02:20:40.705Z,975.37
2017-01-03T02:21:40.698Z,975.38
2017-01-03T02:22:40.698Z,975.39
2017-01-03T02:23:40.693Z,975.41
2017-01-03T02:24:40.689Z,975.43
2017-01-03T02:25:40.685Z,975.41
2017-01-03T02:26:40.674Z,975.42
2017-01-03T02:27:40.674Z,975.44
2017-01-03T02:28:40.670Z,975.4
2017-01-03T02:29:40.686Z,975.43
2017-01-03T02:30:40.658Z,975.38
2017-01-03T02:31:40.659Z,975.39
2017-01-03T02:32:40.654Z,975.35
2017-01-03T02:33:40.650Z,975.36
2017-01-03T02:34:40.646Z,975.36
2017-01-03T02:35:40.639Z,975.35
2017-01-03T02:36:40.638Z,975.32
2017-01-03T02:37:40.630Z,975.32
2017-01-03T02:38:40.622Z,975.31
2017-01-03T02:39:40.622Z,975.29
2017-01-03T02:40:40.618Z,975.3
2017-01-03T02:41:40.614Z,975.29
2017-01-03T02:42:40.607Z,975.29
2017-01-03T02:43:40.604Z,975.27
2017-01-03T02:44:40.599Z,975.28
2017-01-03T02:45:40.597Z,975.29
2017-01-03T02:46:40.591Z,975.3
2017-01-03T02:47:40.583Z,975.3
2017-01-03T02:48:40.583Z,975.27
2017-01-03T02:49:40.579Z,975.28
2017-01-03T02:50:40.575Z,975.27
2017-01-03T02:51:40.567Z,975.25
2017-01-03T02:52:40.563Z,975.27
2017-01-03T02:53:40.560Z,975.23
2017-01-03T02:54:40.555Z,975.21
2017-01-03T02:55:40.551Z,975.23
2017-01-03T02:56:40.544Z,975.24
2017-01-03T02:57:40.544Z,975.19
2017-01-03T02:58:40.540Z,975.22
2017-01-03T02:59:40.528Z,975.22
2017-01-03T03:00:40.528Z,975.19
2017-01-03T03:01:40.524Z,975.24
2017-01-03T03:02:40.520Z,975.23
2017-01-03T03:03:40.516Z,975.26
2017-01-03T03:04:40.508Z,975.26
2017-01-03T03:05:40.508Z,975.3
2017-01-03T03:06:40.504Z,975.27
2017-01-03T03:07:40.492Z,975.3
2017-01-03T03:08:40.488Z,975.27
2017-01-03T03:09:40.489Z,975.26
2017-01-03T03:10:40.485Z,975.3
2017-01-03T03:11:40.480Z,975.29
2017-01-03T03:12:40.472Z,975.27
2017-01-03T03:13:40.472Z,975.27
2017-01-03T03:14:40.465Z,975.26
2017-01-03T03:15:40.460Z,975.26
2017-01-03T03:16:40.457Z,975.23
2017-01-03T03:17:40.453Z,975.23
2017-01-03T03:18:40.449Z,975.27
2017-01-03T03:19:40.441Z,975.25
2017-01-03T03:20:40.441Z,975.28
2017-01-03T03:21:40.437Z,975.31
2017-01-03T03:22:40.427Z,975.28
2017-01-03T03:23:40.426Z,975.3
2017-01-03T03:24:40.421Z,975.24
2017-01-03T03:25:40.418Z,975.28
2017-01-03T03:26:40.410Z,975.31
2017-01-03T03:27:40.410Z,975.28
2017-01-03T03:28:40.401Z,975.3
2017-01-03T03:29:40.394Z,975.25
2017-01-03T03:30:40.390Z,975.25
2017-01-03T03:31:40.390Z,975.29
2017-01-03T03:32:40.383Z,975.28
2017-01-03T03:33:40.378Z,975.26
2017-01-03T03:34:40.378Z,975.25
2017-01-03T03:35:40.374Z,975.26
2017-01-03T03:36:40.362Z,975.26
2017-01-03T03:37:40.362Z,975.26
2017-01-03T03:38:40.358Z,975.3
2017-01-03T03:39:40.351Z,975.28
2017-01-03T03:40:40.347Z,975.27
2017-01-03T03:41:40.347Z,975.3
2017-01-03T03:42:40.343Z,975.33
2017-01-03T03:43:40.335Z,975.33
2017-01-03T03:44:40.331Z,975.36
2017-01-03T03:45:40.323Z,975.37
2017-01-03T03:46:40.319Z,975.4
2017-01-03T03:47:40.321Z,975.39
2017-01-03T03:48:40.315Z,975.37
2017-01-03T03:49:40.311Z,975.32
2017-01-03T03:50:40.303Z,975.37
2017-01-03T03:51:40.299Z,975.35
2017-01-03T03:52:40.291Z,975.4
2017-01-03T03:53:40.291Z,975.42
2017-01-03T03:54:40.287Z,975.43
2017-01-03T03:55:40.280Z,975.41
2017-01-03T03:56:40.289Z,975.4
2017-01-03T03:57:40.267Z,975.42
2017-01-03T03:58:40.267Z,975.42
2017-01-03T03:59:40.263Z,975.4
2017-01-03T04:00:40.256Z,975.43
2017-01-03T04:01:40.252Z,975.4
2017-01-03T04:02:40.252Z,975.36
2017-01-03T04:03:40.240Z,975.39
2017-01-03T04:04:40.240Z,975.39
2017-01-03T04:05:40.236Z,975.37
2017-01-03T04:06:40.228Z,975.37
2017-01-03T04:07:40.230Z,975.41
2017-01-03T04:08:40.225Z,975.43
2017-01-03T04:09:40.216Z,975.46
2017-01-03T04:10:40.216Z,975.43
2017-01-03T04:11:40.204Z,975.43
2017-01-03T04:12:40.205Z,975.43
2017-01-03T04:13:40.200Z,975.42
2017-01-03T04:14:40.192Z,975.42
2017-01-03T04:15:40.192Z,975.44
2017-01-03T04:16:40.184Z,975.44
2017-01-03T04:17:40.176Z,975.45
2017-01-03T04:18:40.176Z,975.45
2017-01-03T04:19:40.172Z,975.43
2017-01-03T04:20:40.170Z,975.44
2017-01-03T04:21:40.164Z,975.41
2017-01-03T04:22:40.157Z,975.44
2017-01-03T04:23:40.153Z,975.42
2017-01-03T04:24:40.145Z,975.47
2017-01-03T04:25:40.145Z,975.46
2017-01-03T04:26:40.140Z,975.45
2017-01-03T04:27:40.133Z,975.5
2017-01-03T04:28:40.129Z,975.48
2017-01-03T04:29:40.125Z,975.48
2017-01-03T04:30:40.121Z,975.47
2017-01-03T04:31:40.117Z,975.5
2017-01-03T04:32:40.109Z,975.53
2017-01-03T04:33:40.109Z,975.51
2017-01-03T04:34:40.097Z,975.53
2017-01-03T04:35:40.097Z,975.53
2017-01-03T04:36:40.093Z,975.57
2017-01-03T04:37:40.086Z,975.58
2017-01-03T04:38:40.085Z,975.6
2017-01-03T04:39:40.081Z,975.6
2017-01-03T04:40:40.078Z,975.63
2017-01-03T04:41:40.069Z,975.65
2017-01-03T04:42:40.061Z,975.65
2017-01-03T04:43:40.062Z,975.68
2017-01-03T04:44:40.053Z,975.7
2017-01-03T04:45:40.053Z,975.7
2017-01-03T04:46:40.045Z,975.73
2017-01-03T04:47:40.042Z,975.71
2017-01-03T04:48:40.041Z,975.73
2017-01-03T04:49:40.030Z,975.77
2017-01-03T04:50:40.029Z,975.77
2017-01-03T04:51:40.026Z,975.79
2017-01-03T04:52:40.017Z,975.83
2017-01-03T04:53:40.009Z,975.8
2017-01-03T04:54:40.009Z,975.86
2017-01-03T04:55:40.006Z,975.87
2017-01-03T04:56:40.002Z,975.87
2017-01-03T04:57:39.990Z,975.83
2017-01-03T04:58:39.990Z,975.8
2017-01-03T04:59:39.985Z,975.78
2017-01-03T05:00:39.982Z,975.81
2017-01-03T05:01:39.977Z,975.79
2017-01-03T05:02:39.974Z,975.79
2017-01-03T05:03:39.965Z,975.78
2017-01-03T05:04:39.962Z,975.84
2017-01-03T05:05:39.957Z,975.83
2017-01-03T05:06:39.954Z,975.87
2017-01-03T05:07:39.942Z,975.87
2017-01-03T05:08:39.942Z,975.87
2017-01-03T05:09:39.937Z,975.88
2017-01-03T05:10:39.933Z,975.9
2017-01-03T05:11:39.930Z,975.89
2017-01-03T05:12:39.926Z,975.91
2017-01-03T05:13:39.913Z,975.95
2017-01-03T05:14:39.914Z,975.94
2017-01-03T05:15:39.906Z,975.91
2017-01-03T05:16:39.906Z,975.92
2017-01-03T05:17:39.902Z,975.91
2017-01-03T05:18:39.893Z,975.94
2017-01-03T05:19:39.890Z,975.94
2017-01-03T05:20:39.885Z,975.96
2017-01-03T05:21:39.881Z,975.94
2017-01-03T05:22:39.869Z,976.01
2017-01-03T05:23:39.869Z,976
2017-01-03T05:24:39.861Z,976.03
2017-01-03T05:25:39.861Z,976.01
2017-01-03T05:26:39.857Z,976.04
2017-01-03T05:27:39.845Z,976.03
2017-01-03T05:28:39.844Z,976.03
2017-01-03T05:29:39.836Z,976.04
2017-01-03T05:30:39.836Z,976.03
2017-01-03T05:31:39.828Z,976.03
2017-01-03T05:32:39.820Z,976.04
2017-01-03T05:33:39.820Z,976.03
2017-01-03T05:34:39.815Z,976.03
2017-01-03T05:35:39.812Z,976.03
2017-01-03T05:36:39.804Z,976.02
2017-01-03T05:37:39.796Z,976.04
2017-01-03T05:38:39.796Z,976.03
2017-01-03T05:39:39.792Z,976
2017-01-03T05:40:39.780Z,976.02
2017-01-03T05:41:39.780Z,976.03
2017-01-03T05:42:39.776Z,976
2017-01-03T05:43:39.771Z,976.05
2017-01-03T05:44:39.768Z,976.05
2017-01-03T05:45:39.764Z,976.07
2017-01-03T05:46:39.752Z,976.11
2017-01-03T05:47:39.751Z,976.11
2017-01-03T05:48:39.748Z,976.13
2017-01-03T05:49:39.740Z,976.18
2017-01-03T05:50:39.736Z,976.13
2017-01-03T05:51:39.733Z,976.17
2017-01-03T05:52:39.724Z,976.21
2017-01-03T05:53:39.972Z,976.16
2017-01-03T05:54:39.716Z,976.17
2017-01-03T05:55:39.712Z,976.16
2017-01-03T05:56:39.704Z,976.22
2017-01-03T05:57:39.704Z,976.22
2017-01-03T05:58:39.696Z,976.24
2017-01-03T05:59:39.688Z,976.26
2017-01-03T06:00:39.684Z,976.28
2017-01-03T06:01:39.685Z,976.28
2017-01-03T06:02:39.676Z,976.31
2017-01-03T06:03:39.672Z,976.31
2017-01-03T06:04:39.668Z,976.29
2017-01-03T06:05:39.660Z,976.27
2017-01-03T06:06:39.656Z,976.27
2017-01-03T06:07:39.652Z,976.26
2017-01-03T06:08:39.644Z,976.25
2017-01-03T06:09:39.640Z,976.25
2017-01-03T06:10:39.636Z,976.25
2017-01-03T06:11:39.632Z,976.22
2017-01-03T06:12:39.624Z,976.24
2017-01-03T06:13:39.616Z,976.26
2017-01-03T06:14:39.616Z,976.22
2017-01-03T06:15:39.612Z,976.24
2017-01-03T06:16:39.609Z,976.24
2017-01-03T06:17:39.600Z,976.23
2017-01-03T06:18:39.592Z,976.24
2017-01-03T06:19:39.591Z,976.28
2017-01-03T06:20:39.588Z,976.25
2017-01-03T06:21:39.580Z,976.24
2017-01-03T06:22:39.576Z,976.26
2017-01-03T06:23:39.572Z,976.28
2017-01-03T06:24:39.560Z,976.28
2017-01-03T06:25:39.560Z,976.26
2017-01-03T06:26:39.556Z,976.29
2017-01-03T06:27:39.552Z,976.31
2017-01-03T06:28:39.544Z,976.28
2017-01-03T06:29:39.541Z,976.3
2017-01-03T06:30:39.537Z,976.33
2017-01-03T06:31:39.525Z,976.35
2017-01-03T06:32:39.525Z,976.31
2017-01-03T06:33:39.522Z,976.32
2017-01-03T06:34:39.517Z,976.33
2017-01-03T06:35:39.509Z,976.31
2017-01-03T06:36:39.505Z,976.34
2017-01-03T06:37:39.501Z,976.33
2017-01-03T06:38:39.493Z,976.35
2017-01-03T06:39:39.485Z,976.37
2017-01-03T06:40:39.485Z,976.35
2017-01-03T06:41:39.481Z,976.33
2017-01-03T06:42:39.473Z,976.31
2017-01-03T06:43:39.469Z,976.3
2017-01-03T06:44:39.465Z,976.33
2017-01-03T06:45:39.461Z,976.31
2017-01-03T06:46:39.453Z,976.36
2017-01-03T06:47:39.449Z,976.36
2017-01-03T06:48:39.445Z,976.37
2017-01-03T06:49:39.437Z,976.36
2017-01-03T06:50:39.431Z,976.39
2017-01-03T06:51:39.427Z,976.39
2017-01-03T06:52:39.421Z,976.41
2017-01-03T06:53:39.418Z,976.44
2017-01-03T06:54:39.413Z,976.42
2017-01-03T06:55:39.405Z,976.41
2017-01-03T06:56:39.401Z,976.44
2017-01-03T06:57:39.397Z,976.44
2017-01-03T06:58:39.397Z,976.44
2017-01-03T06:59:39.386Z,976.48
2017-01-03T07:00:39.382Z,976.49
2017-01-03T07:01:39.402Z,976.54
2017-01-03T07:02:39.369Z,976.53
2017-01-03T07:03:39.366Z,976.49
2017-01-03T07:04:39.362Z,976.49
2017-01-03T07:05:39.354Z,976.53
2017-01-03T07:06:39.350Z,976.54
2017-01-03T07:07:39.346Z,976.53
2017-01-03T07:08:39.338Z,976.55
2017-01-03T07:09:39.334Z,976.57
2017-01-03T07:10:39.330Z,976.56
2017-01-03T07:11:39.323Z,976.54
2017-01-03T07:12:39.318Z,976.54
2017-01-03T07:13:39.315Z,976.54
2017-01-03T07:14:39.310Z,976.53
2017-01-03T07:15:39.303Z,976.49
2017-01-03T07:16:39.299Z,976.5
2017-01-03T07:17:39.295Z,976.5
2017-01-03T07:18:39.287Z,976.5
2017-01-03T07:19:39.282Z,976.54
2017-01-03T07:20:39.279Z,976.49
2017-01-03T07:21:39.275Z,976.47
2017-01-03T07:22:39.267Z,976.51
2017-01-03T07:23:39.263Z,976.51
2017-01-03T07:24:39.255Z,976.45
2017-01-03T07:25:39.263Z,976.46
2017-01-03T07:26:39.247Z,976.47
2017-01-03T07:27:39.239Z,976.49
2017-01-03T07:28:39.235Z,976.46
2017-01-03T07:29:39.231Z,976.47
2017-01-03T07:30:39.223Z,976.48
2017-01-03T07:31:39.219Z,976.47
2017-01-03T07:32:39.216Z,976.47
2017-01-03T07:33:39.208Z,976.49
2017-01-03T07:34:39.203Z,976.46
2017-01-03T07:35:39.200Z,976.45
2017-01-03T07:36:39.196Z,976.45
2017-01-03T07:37:39.188Z,976.38
2017-01-03T07:38:39.184Z,976.4
2017-01-03T07:39:39.180Z,976.39
2017-01-03T07:40:39.172Z,976.4
2017-01-03T07:41:39.168Z,976.38
2017-01-03T07:42:39.164Z,976.42
2017-01-03T07:43:39.160Z,976.44
2017-01-03T07:44:39.152Z,976.4
2017-01-03T07:45:39.144Z,976.41
2017-01-03T07:46:39.140Z,976.4
2017-01-03T07:47:39.132Z,976.43
2017-01-03T07:48:39.132Z,976.42
2017-01-03T07:49:39.128Z,976.45
2017-01-03T07:50:39.120Z,976.46
2017-01-03T07:51:39.116Z,976.46
2017-01-03T07:52:39.112Z,976.43
2017-01-03T07:53:39.108Z,976.48
2017-01-03T07:54:39.100Z,976.45
2017-01-03T07:55:39.096Z,976.46
2017-01-03T07:56:39.092Z,976.44
2017-01-03T07:57:39.081Z,976.49
2017-01-03T07:58:39.077Z,976.52
2017-01-03T07:59:39.077Z,976.49
2017-01-03T08:00:39.069Z,976.52
2017-01-03T08:01:39.065Z,976.51
2017-01-03T08:02:39.061Z,976.54
2017-01-03T08:03:39.056Z,976.54
2017-01-03T08:04:39.045Z,976.57
2017-01-03T08:05:39.040Z,976.55
2017-01-03T08:06:39.040Z,976.56
2017-01-03T08:07:39.037Z,976.54
2017-01-03T08:08:39.029Z,976.57
2017-01-03T08:09:39.025Z,976.53
2017-01-03T08:10:39.017Z,976.51
2017-01-03T08:11:39.013Z,976.51
2017-01-03T08:12:39.009Z,976.53
2017-01-03T08:13:39.005Z,976.58
2017-01-03T08:14:39.001Z,976.56
2017-01-03T08:15:38.989Z,976.55
2017-01-03T08:16:38.989Z,976.55
2017-01-03T08:17:38.985Z,976.6
2017-01-03T08:18:38.982Z,976.61
2017-01-03T08:19:38.969Z,976.6
2017-01-03T08:20:38.969Z,976.58
2017-01-03T08:21:38.965Z,976.61
2017-01-03T08:22:38.958Z,976.61
2017-01-03T08:23:38.949Z,976.67
2017-01-03T08:24:38.949Z,976.64
2017-01-03T08:25:39.046Z,976.6
2017-01-03T08:26:38.941Z,976.64
2017-01-03T08:27:38.933Z,976.65
2017-01-03T08:28:38.929Z,976.64
2017-01-03T08:29:38.921Z,976.6
2017-01-03T08:30:38.922Z,976.61
2017-01-03T08:31:38.917Z,976.58
2017-01-03T08:32:38.910Z,976.59
2017-01-03T08:33:38.906Z,976.59
2017-01-03T08:34:38.901Z,976.58
2017-01-03T08:35:38.893Z,976.59
2017-01-03T08:36:38.885Z,976.58
2017-01-03T08:37:38.888Z,976.6
2017-01-03T08:38:38.882Z,976.59
2017-01-03T08:39:38.870Z,976.57
2017-01-03T08:40:38.869Z,976.6
2017-01-03T08:41:38.865Z,976.6
2017-01-03T08:42:38.861Z,976.61
2017-01-03T08:43:38.854Z,976.64
2017-01-03T08:44:38.850Z,976.66
2017-01-03T08:45:38.845Z,976.67
2017-01-03T08:46:38.842Z,976.69
2017-01-03T08:47:38.837Z,976.65
2017-01-03T08:48:38.830Z,976.7
2017-01-03T08:49:38.822Z,976.68
2017-01-03T08:50:38.821Z,976.71
2017-01-03T08:51:38.817Z,976.74
2017-01-03T08:52:38.806Z,976.75
2017-01-03T08:53:38.806Z,976.77
2017-01-03T08:54:38.798Z,976.79
2017-01-03T08:55:38.794Z,976.86
2017-01-03T08:56:38.793Z,976.86
2017-01-03T08:57:38.786Z,976.83
2017-01-03T08:58:38.782Z,976.86
2017-01-03T08:59:38.777Z,976.83
2017-01-03T09:00:38.770Z,976.85
2017-01-03T09:01:38.766Z,976.85
2017-01-03T09:02:38.761Z,976.86
2017-01-03T09:03:38.754Z,976.86
2017-01-03T09:04:38.753Z,976.84
2017-01-03T09:05:38.750Z,976.86
2017-01-03T09:06:38.737Z,976.9
2017-01-03T09:07:38.737Z,976.88
2017-01-03T09:08:38.733Z,976.9
2017-01-03T09:09:38.729Z,976.88
2017-01-03T09:10:38.724Z,976.88
2017-01-03T09:11:38.716Z,976.88
2017-01-03T09:12:38.712Z,976.86
2017-01-03T09:13:38.708Z,976.86
2017-01-03T09:14:38.704Z,976.88
2017-01-03T09:15:38.696Z,976.85
2017-01-03T09:16:38.688Z,976.85
2017-01-03T09:17:38.688Z,976.85
2017-01-03T09:18:38.683Z,976.86
2017-01-03T09:19:38.679Z,976.87
2017-01-03T09:20:38.671Z,976.86
2017-01-03T09:21:38.667Z,976.88
2017-01-03T09:22:38.659Z,976.9
2017-01-03T09:23:38.658Z,976.95
2017-01-03T09:24:38.654Z,976.97
2017-01-03T09:25:38.646Z,976.98
2017-01-03T09:26:38.642Z,977.02
2017-01-03T09:27:38.638Z,977.02
2017-01-03T09:28:38.634Z,977.05
2017-01-03T09:29:38.630Z,977.05
2017-01-03T09:30:38.624Z,977.01
2017-01-03T09:31:38.617Z,977.03
2017-01-03T09:32:38.609Z,977.03
2017-01-03T09:33:38.609Z,977.07
2017-01-03T09:34:38.605Z,977.03
2017-01-03T09:35:38.601Z,977.01
2017-01-03T09:36:38.593Z,976.98
2017-01-03T09:37:38.588Z,976.97
2017-01-03T09:38:38.584Z,976.97
2017-01-03T09:39:38.577Z,976.98
2017-01-03T09:40:38.576Z,976.98
2017-01-03T09:41:38.565Z,976.99
2017-01-03T09:42:38.561Z,977.03
2017-01-03T09:43:38.560Z,977.02
2017-01-03T09:44:38.552Z,977.02
2017-01-03T09:45:38.551Z,977.07
2017-01-03T09:46:38.548Z,977.05
2017-01-03T09:47:38.544Z,977.04
2017-01-03T09:48:38.535Z,977.07
2017-01-03T09:49:38.531Z,977.04
2017-01-03T09:50:38.523Z,977.08
2017-01-03T09:51:38.523Z,977.06
2017-01-03T09:52:38.519Z,977.07
2017-01-03T09:53:38.511Z,977.1
2017-01-03T09:54:38.507Z,977.03
2017-01-03T09:55:38.507Z,977.04
2017-01-03T09:56:38.499Z,977.05
2017-01-03T09:57:38.491Z,976.99
2017-01-03T09:58:38.487Z,977.01
2017-01-03T09:59:38.487Z,976.98
2017-01-03T10:00:38.482Z,977.01
2017-01-03T10:01:38.478Z,977.01
2017-01-03T10:02:38.470Z,977.02
2017-01-03T10:03:38.466Z,977.04
2017-01-03T10:04:38.463Z,977.05
2017-01-03T10:05:38.458Z,977.02
2017-01-03T10:06:38.451Z,977
2017-01-03T10:07:38.447Z,977.04
2017-01-03T10:08:38.443Z,977.05
2017-01-03T10:09:38.443Z,977.06
2017-01-03T10:10:38.439Z,977.06
2017-01-03T10:11:38.431Z,977.06
2017-01-03T10:12:38.423Z,977.07
2017-01-03T10:13:38.419Z,977.07
2017-01-03T10:14:38.415Z,977
2017-01-03T10:15:38.411Z,977.04
2017-01-03T10:16:38.410Z,977
2017-01-03T10:17:38.406Z,976.98
2017-01-03T10:18:38.402Z,976.98
2017-01-03T10:19:38.400Z,977
2017-01-03T10:20:38.395Z,976.96
2017-01-03T10:21:38.391Z,976.97
2017-01-03T10:22:38.386Z,976.93
2017-01-03T10:23:38.379Z,976.97
2017-01-03T10:24:38.378Z,977
2017-01-03T10:25:38.371Z,976.97
2017-01-03T10:26:38.366Z,976.95
2017-01-03T10:27:38.362Z,976.98
2017-01-03T10:28:38.359Z,976.94
2017-01-03T10:29:38.355Z,976.94
2017-01-03T10:30:38.354Z,976.95
2017-01-03T10:31:38.346Z,976.95
2017-01-03T10:32:38.342Z,976.95
2017-01-03T10:33:38.339Z,976.96
2017-01-03T10:34:38.335Z,976.95
2017-01-03T10:35:38.327Z,976.91
2017-01-03T10:36:38.323Z,976.92
2017-01-03T10:37:38.322Z,976.88
2017-01-03T10:38:38.315Z,976.88
2017-01-03T10:39:38.314Z,976.85
2017-01-03T10:40:38.311Z,976.87
2017-01-03T10:41:38.306Z,976.85
2017-01-03T10:42:38.303Z,976.88
2017-01-03T10:43:38.299Z,976.87
2017-01-03T10:44:38.295Z,976.88
2017-01-03T10:45:38.287Z,976.9
2017-01-03T10:46:38.283Z,976.89
2017-01-03T10:47:38.275Z,976.87
2017-01-03T10:48:38.274Z,976.85
2017-01-03T10:49:38.275Z,976.87
2017-01-03T10:50:38.273Z,976.86
2017-01-03T10:51:38.258Z,976.87
2017-01-03T10:52:38.255Z,976.92
2017-01-03T10:53:38.255Z,976.89
2017-01-03T10:54:38.252Z,976.86
2017-01-03T10:55:38.244Z,976.9
2017-01-03T10:56:38.244Z,976.93
2017-01-03T10:57:38.244Z,976.97
2017-01-03T10:58:38.236Z,976.96
2017-01-03T10:59:38.229Z,976.99
2017-01-03T11:00:38.228Z,977.04
2017-01-03T11:01:38.224Z,977.02
2017-01-03T11:02:38.221Z,977.02
2017-01-03T11:03:38.213Z,977.02
2017-01-03T11:04:38.217Z,976.96
2017-01-03T11:05:38.207Z,976.95
2017-01-03T11:06:38.206Z,977
2017-01-03T11:07:38.207Z,977.01
2017-01-03T11:08:38.201Z,976.95
2017-01-03T11:09:38.198Z,976.96
2017-01-03T11:10:38.190Z,976.95
2017-01-03T11:11:38.190Z,976.91
2017-01-03T11:12:38.183Z,976.87
2017-01-03T11:13:38.182Z,976.9
2017-01-03T11:14:38.175Z,976.86
2017-01-03T11:15:38.176Z,976.85
2017-01-03T11:16:38.167Z,976.84
2017-01-03T11:17:38.167Z,976.83
2017-01-03T11:18:38.163Z,976.82
2017-01-03T11:19:38.160Z,976.8
2017-01-03T11:20:38.156Z,976.83
2017-01-03T11:21:38.148Z,976.8
2017-01-03T11:22:38.148Z,976.81
2017-01-03T11:23:38.144Z,976.78
2017-01-03T11:24:38.144Z,976.77
2017-01-03T11:25:38.140Z,976.79
2017-01-03T11:26:38.137Z,976.74
2017-01-03T11:27:38.132Z,976.7
2017-01-03T11:28:38.129Z,976.69
2017-01-03T11:29:38.125Z,976.67
2017-01-03T11:30:38.125Z,976.67
2017-01-03T11:31:38.117Z,976.71
2017-01-03T11:32:38.118Z,976.65
2017-01-03T11:33:38.113Z,976.67
2017-01-03T11:34:38.110Z,976.66
2017-01-03T11:35:38.105Z,976.65
2017-01-03T11:36:38.102Z,976.66
2017-01-03T11:37:38.098Z,976.66
2017-01-03T11:38:38.094Z,976.65
2017-01-03T11:39:38.094Z,976.61
2017-01-03T11:40:38.090Z,976.61
2017-01-03T11:41:38.086Z,976.6
2017-01-03T11:42:38.083Z,976.55
2017-01-03T11:43:38.079Z,976.54
2017-01-03T11:44:38.075Z,976.53
2017-01-03T11:45:38.071Z,976.51
2017-01-03T11:46:38.067Z,976.46
2017-01-03T11:47:38.063Z,976.45
2017-01-03T11:48:38.063Z,976.46
2017-01-03T11:49:38.059Z,976.41
2017-01-03T11:50:38.056Z,976.39
2017-01-03T11:51:38.052Z,976.43
2017-01-03T11:52:38.048Z,976.38
2017-01-03T11:53:38.044Z,976.4
2017-01-03T11:54:38.048Z,976.36
2017-01-03T11:55:38.040Z,976.37
2017-01-03T11:56:38.037Z,976.33
2017-01-03T11:57:38.029Z,976.37
2017-01-03T11:58:38.029Z,976.36
2017-01-03T11:59:38.025Z,976.34
2017-01-03T12:00:38.021Z,976.31
2017-01-03T12:01:38.017Z,976.3
2017-01-03T12:02:38.014Z,976.26
2017-01-03T12:03:38.014Z,976.27
2017-01-03T12:04:38.010Z,976.25
2017-01-03T12:05:38.006Z,976.24
2017-01-03T12:06:38.002Z,976.23
2017-01-03T12:07:37.995Z,976.18
2017-01-03T12:08:37.994Z,976.19
2017-01-03T12:09:37.994Z,976.19
2017-01-03T12:10:37.991Z,976.11
2017-01-03T12:11:37.986Z,976.13
2017-01-03T12:12:37.979Z,976.1
2017-01-03T12:13:37.975Z,976.07
2017-01-03T12:14:37.975Z,976.01
2017-01-03T12:15:37.975Z,975.98
2017-01-03T12:16:37.971Z,976.05
2017-01-03T12:17:37.967Z,976.04
2017-01-03T12:18:37.960Z,975.99
2017-01-03T12:19:37.959Z,976
2017-01-03T12:20:37.955Z,975.99
2017-01-03T12:21:37.956Z,975.97
2017-01-03T12:22:37.948Z,975.92
2017-01-03T12:23:37.944Z,975.94
2017-01-03T12:24:37.944Z,975.91
2017-01-03T12:25:37.940Z,975.89
2017-01-03T12:26:37.937Z,975.87
2017-01-03T12:27:37.932Z,975.9
2017-01-03T12:28:37.930Z,975.91
2017-01-03T12:29:37.925Z,975.88
2017-01-03T12:30:37.925Z,975.88
2017-01-03T12:31:37.921Z,975.9